sensor_id;sensor_type;location;lat;lon;timestamp;P1;durP1;ratioP1;P2;durP2;ratioP2
70071;SDS011;57434;42.794;23.302;2023-04-19T00:00:09;4.93;;;1.50;;
70071;SDS011;57434;42.794;23.302;2023-04-19T00:01:11;5.45;;;1.40;;
70071;SDS011;57434;42.794;23.302;2023-04-19T00:02:13;5.60;;;1.63;;
70071;SDS011;57434;42.794;23.302;2023-04-19T00:03:15;4.97;;;1.52;;
70071;SDS011;57434;42.794;23.302;2023-04-19T00:04:17;4.53;;;1.50;;
70071;SDS011;57434;42.794;23.302;2023-04-19T00:05:19;5.63;;;1.60;;
70071;SDS011;57434;42.794;23.302;2023-04-19T00:06:21;4.50;;;1.38;;
70071;SDS011;57434;42.794;23.302;2023-04-19T00:07:23;4.88;;;1.50;;
70071;SDS011;57434;42.794;23.302;2023-04-19T00:08:25;5.20;;;1.42;;
70071;SDS011;57434;42.794;23.302;2023-04-19T00:09:27;5.10;;;1.63;;
70071;SDS011;57434;42.794;23.302;2023-04-19T00:10:28;5.22;;;1.70;;
70071;SDS011;57434;42.794;23.302;2023-04-19T00:11:30;6.25;;;1.38;;
70071;SDS011;57434;42.794;23.302;2023-04-19T00:12:32;4.40;;;1.17;;
70071;SDS011;57434;42.794;23.302;2023-04-19T00:13:34;5.43;;;1.30;;
70071;SDS011;57434;42.794;23.302;2023-04-19T00:14:36;4.53;;;1.23;;
70071;SDS011;57434;42.794;23.302;2023-04-19T00:15:38;5.20;;;1.60;;
70071;SDS011;57434;42.794;23.302;2023-04-19T00:16:40;3.95;;;1.20;;
70071;SDS011;57434;42.794;23.302;2023-04-19T00:17:42;3.33;;;1.20;;
70071;SDS011;57434;42.794;23.302;2023-04-19T00:18:44;4.05;;;1.30;;
70071;SDS011;57434;42.794;23.302;2023-04-19T00:19:45;3.65;;;1.15;;
70071;SDS011;57434;42.794;23.302;2023-04-19T00:20:47;4.13;;;1.05;;
70071;SDS011;57434;42.794;23.302;2023-04-19T00:21:49;4.15;;;1.20;;
70071;SDS011;57434;42.794;23.302;2023-04-19T00:22:51;3.83;;;1.15;;
70071;SDS011;57434;42.794;23.302;2023-04-19T00:23:52;5.13;;;1.23;;
70071;SDS011;57434;42.794;23.302;2023-04-19T00:24:54;3.15;;;0.88;;
70071;SDS011;57434;42.794;23.302;2023-04-19T00:25:56;3.17;;;1.20;;
70071;SDS011;57434;42.794;23.302;2023-04-19T00:26:58;4.65;;;1.60;;
70071;SDS011;57434;42.794;23.302;2023-04-19T00:28:00;4.65;;;1.23;;
70071;SDS011;57434;42.794;23.302;2023-04-19T00:29:01;5.25;;;1.75;;
70071;SDS011;57434;42.794;23.302;2023-04-19T00:30:03;5.00;;;1.38;;
70071;SDS011;57434;42.794;23.302;2023-04-19T00:31:05;5.47;;;1.40;;
70071;SDS011;57434;42.794;23.302;2023-04-19T00:32:07;5.10;;;1.55;;
70071;SDS011;57434;42.794;23.302;2023-04-19T00:33:09;5.40;;;1.33;;
70071;SDS011;57434;42.794;23.302;2023-04-19T00:34:11;4.90;;;1.33;;
70071;SDS011;57434;42.794;23.302;2023-04-19T00:35:13;4.00;;;1.23;;
70071;SDS011;57434;42.794;23.302;2023-04-19T00:36:14;4.87;;;1.50;;
70071;SDS011;57434;42.794;23.302;2023-04-19T00:37:16;3.95;;;1.20;;
70071;SDS011;57434;42.794;23.302;2023-04-19T00:38:18;5.50;;;1.58;;
70071;SDS011;57434;42.794;23.302;2023-04-19T00:39:20;5.63;;;1.63;;
70071;SDS011;57434;42.794;23.302;2023-04-19T00:40:22;4.68;;;1.50;;
70071;SDS011;57434;42.794;23.302;2023-04-19T00:41:23;4.97;;;1.70;;
70071;SDS011;57434;42.794;23.302;2023-04-19T00:42:25;8.18;;;2.50;;
70071;SDS011;57434;42.794;23.302;2023-04-19T00:43:27;6.13;;;2.00;;
70071;SDS011;57434;42.794;23.302;2023-04-19T00:44:29;6.43;;;2.10;;
70071;SDS011;57434;42.794;23.302;2023-04-19T00:45:31;9.43;;;4.35;;
70071;SDS011;57434;42.794;23.302;2023-04-19T00:46:36;8.67;;;4.83;;
70071;SDS011;57434;42.794;23.302;2023-04-19T00:47:38;8.93;;;4.20;;
70071;SDS011;57434;42.794;23.302;2023-04-19T00:48:40;6.45;;;2.70;;
70071;SDS011;57434;42.794;23.302;2023-04-19T00:49:42;9.18;;;4.78;;
70071;SDS011;57434;42.794;23.302;2023-04-19T00:50:44;14.82;;;7.43;;
70071;SDS011;57434;42.794;23.302;2023-04-19T00:51:46;19.92;;;9.18;;
70071;SDS011;57434;42.794;23.302;2023-04-19T00:52:48;24.90;;;10.27;;
70071;SDS011;57434;42.794;23.302;2023-04-19T00:53:50;21.67;;;9.93;;
70071;SDS011;57434;42.794;23.302;2023-04-19T00:54:53;17.08;;;7.28;;
70071;SDS011;57434;42.794;23.302;2023-04-19T00:55:56;20.40;;;8.95;;
70071;SDS011;57434;42.794;23.302;2023-04-19T00:57:00;9.43;;;4.27;;
70071;SDS011;57434;42.794;23.302;2023-04-19T00:58:02;6.93;;;2.78;;
70071;SDS011;57434;42.794;23.302;2023-04-19T00:59:03;6.68;;;2.42;;
70071;SDS011;57434;42.794;23.302;2023-04-19T01:00:05;7.22;;;2.65;;
70071;SDS011;57434;42.794;23.302;2023-04-19T01:01:08;7.18;;;2.33;;
70071;SDS011;57434;42.794;23.302;2023-04-19T01:02:10;7.00;;;2.30;;
70071;SDS011;57434;42.794;23.302;2023-04-19T01:03:30;7.55;;;2.22;;
70071;SDS011;57434;42.794;23.302;2023-04-19T01:04:32;7.32;;;2.30;;
70071;SDS011;57434;42.794;23.302;2023-04-19T01:05:34;7.22;;;1.55;;
70071;SDS011;57434;42.794;23.302;2023-04-19T01:06:36;5.25;;;1.73;;
70071;SDS011;57434;42.794;23.302;2023-04-19T01:07:41;4.27;;;1.33;;
70071;SDS011;57434;42.794;23.302;2023-04-19T01:08:43;5.82;;;1.50;;
70071;SDS011;57434;42.794;23.302;2023-04-19T01:09:45;4.65;;;1.60;;
70071;SDS011;57434;42.794;23.302;2023-04-19T01:10:47;6.45;;;1.73;;
70071;SDS011;57434;42.794;23.302;2023-04-19T01:11:49;7.28;;;1.80;;
70071;SDS011;57434;42.794;23.302;2023-04-19T01:12:51;4.55;;;1.38;;
70071;SDS011;57434;42.794;23.302;2023-04-19T01:13:56;4.75;;;1.67;;
70071;SDS011;57434;42.794;23.302;2023-04-19T01:14:58;6.10;;;2.50;;
70071;SDS011;57434;42.794;23.302;2023-04-19T01:16:00;8.07;;;2.42;;
70071;SDS011;57434;42.794;23.302;2023-04-19T01:17:02;5.45;;;1.60;;
70071;SDS011;57434;42.794;23.302;2023-04-19T01:18:04;5.33;;;2.00;;
70071;SDS011;57434;42.794;23.302;2023-04-19T01:19:06;6.43;;;2.03;;
70071;SDS011;57434;42.794;23.302;2023-04-19T01:20:08;6.20;;;2.55;;
70071;SDS011;57434;42.794;23.302;2023-04-19T01:21:10;6.63;;;2.20;;
70071;SDS011;57434;42.794;23.302;2023-04-19T01:22:19;9.30;;;3.55;;
70071;SDS011;57434;42.794;23.302;2023-04-19T01:23:21;18.55;;;7.72;;
70071;SDS011;57434;42.794;23.302;2023-04-19T01:24:23;15.70;;;6.45;;
70071;SDS011;57434;42.794;23.302;2023-04-19T01:25:25;13.88;;;6.18;;
70071;SDS011;57434;42.794;23.302;2023-04-19T01:26:27;12.50;;;5.50;;
70071;SDS011;57434;42.794;23.302;2023-04-19T01:27:29;10.10;;;4.35;;
70071;SDS011;57434;42.794;23.302;2023-04-19T01:28:31;10.50;;;4.20;;
70071;SDS011;57434;42.794;23.302;2023-04-19T01:29:33;10.57;;;4.15;;
70071;SDS011;57434;42.794;23.302;2023-04-19T01:30:35;8.30;;;3.60;;
70071;SDS011;57434;42.794;23.302;2023-04-19T01:31:37;8.10;;;3.70;;
70071;SDS011;57434;42.794;23.302;2023-04-19T01:32:39;7.95;;;2.38;;
70071;SDS011;57434;42.794;23.302;2023-04-19T01:33:41;4.80;;;1.80;;
70071;SDS011;57434;42.794;23.302;2023-04-19T01:34:43;5.55;;;2.10;;
70071;SDS011;57434;42.794;23.302;2023-04-19T01:35:45;4.88;;;1.90;;
70071;SDS011;57434;42.794;23.302;2023-04-19T01:36:48;6.25;;;2.17;;
70071;SDS011;57434;42.794;23.302;2023-04-19T01:37:49;5.68;;;2.00;;
70071;SDS011;57434;42.794;23.302;2023-04-19T01:38:51;6.60;;;2.20;;
70071;SDS011;57434;42.794;23.302;2023-04-19T01:39:53;5.85;;;2.30;;
70071;SDS011;57434;42.794;23.302;2023-04-19T01:40:55;4.80;;;2.17;;
70071;SDS011;57434;42.794;23.302;2023-04-19T01:41:57;5.28;;;1.98;;
70071;SDS011;57434;42.794;23.302;2023-04-19T01:42:59;5.50;;;1.92;;
70071;SDS011;57434;42.794;23.302;2023-04-19T01:44:00;5.13;;;2.10;;
70071;SDS011;57434;42.794;23.302;2023-04-19T01:45:02;7.70;;;2.00;;
70071;SDS011;57434;42.794;23.302;2023-04-19T01:46:04;6.35;;;1.88;;
70071;SDS011;57434;42.794;23.302;2023-04-19T01:47:06;5.43;;;2.03;;
70071;SDS011;57434;42.794;23.302;2023-04-19T01:48:08;18.20;;;7.55;;
70071;SDS011;57434;42.794;23.302;2023-04-19T01:49:10;17.13;;;7.07;;
70071;SDS011;57434;42.794;23.302;2023-04-19T01:50:12;54.13;;;20.80;;
70071;SDS011;57434;42.794;23.302;2023-04-19T01:51:14;23.80;;;10.13;;
70071;SDS011;57434;42.794;23.302;2023-04-19T01:52:16;24.45;;;9.82;;
70071;SDS011;57434;42.794;23.302;2023-04-19T01:53:17;15.70;;;5.78;;
70071;SDS011;57434;42.794;23.302;2023-04-19T01:54:20;11.32;;;4.53;;
70071;SDS011;57434;42.794;23.302;2023-04-19T01:55:21;8.15;;;3.08;;
70071;SDS011;57434;42.794;23.302;2023-04-19T01:56:23;6.13;;;2.53;;
70071;SDS011;57434;42.794;23.302;2023-04-19T01:57:25;5.55;;;2.15;;
70071;SDS011;57434;42.794;23.302;2023-04-19T01:58:27;6.75;;;1.95;;
70071;SDS011;57434;42.794;23.302;2023-04-19T01:59:29;5.77;;;2.07;;
70071;SDS011;57434;42.794;23.302;2023-04-19T02:00:31;5.18;;;1.80;;
70071;SDS011;57434;42.794;23.302;2023-04-19T02:01:32;4.80;;;1.92;;
70071;SDS011;57434;42.794;23.302;2023-04-19T02:02:35;5.40;;;1.83;;
70071;SDS011;57434;42.794;23.302;2023-04-19T02:03:38;5.53;;;2.20;;
70071;SDS011;57434;42.794;23.302;2023-04-19T02:04:41;5.00;;;2.08;;
70071;SDS011;57434;42.794;23.302;2023-04-19T02:05:42;5.90;;;2.35;;
70071;SDS011;57434;42.794;23.302;2023-04-19T02:06:44;6.50;;;2.50;;
70071;SDS011;57434;42.794;23.302;2023-04-19T02:07:46;6.22;;;2.20;;
70071;SDS011;57434;42.794;23.302;2023-04-19T02:08:48;5.25;;;1.92;;
70071;SDS011;57434;42.794;23.302;2023-04-19T02:09:50;4.80;;;2.10;;
70071;SDS011;57434;42.794;23.302;2023-04-19T02:10:51;6.38;;;2.38;;
70071;SDS011;57434;42.794;23.302;2023-04-19T02:11:53;6.03;;;2.63;;
70071;SDS011;57434;42.794;23.302;2023-04-19T02:12:55;9.20;;;2.40;;
70071;SDS011;57434;42.794;23.302;2023-04-19T02:13:57;7.72;;;2.15;;
70071;SDS011;57434;42.794;23.302;2023-04-19T02:14:59;6.75;;;2.40;;
70071;SDS011;57434;42.794;23.302;2023-04-19T02:16:01;5.38;;;2.08;;
70071;SDS011;57434;42.794;23.302;2023-04-19T02:17:03;6.63;;;2.28;;
70071;SDS011;57434;42.794;23.302;2023-04-19T02:18:05;6.95;;;2.10;;
70071;SDS011;57434;42.794;23.302;2023-04-19T02:19:07;5.75;;;2.13;;
70071;SDS011;57434;42.794;23.302;2023-04-19T02:20:09;6.63;;;2.33;;
70071;SDS011;57434;42.794;23.302;2023-04-19T02:21:11;6.07;;;2.40;;
70071;SDS011;57434;42.794;23.302;2023-04-19T02:22:13;5.63;;;2.58;;
70071;SDS011;57434;42.794;23.302;2023-04-19T02:23:15;5.30;;;2.20;;
70071;SDS011;57434;42.794;23.302;2023-04-19T02:24:16;7.05;;;2.35;;
70071;SDS011;57434;42.794;23.302;2023-04-19T02:25:18;8.48;;;2.83;;
70071;SDS011;57434;42.794;23.302;2023-04-19T02:26:20;4.93;;;1.92;;
70071;SDS011;57434;42.794;23.302;2023-04-19T02:27:22;5.05;;;2.28;;
70071;SDS011;57434;42.794;23.302;2023-04-19T02:28:24;6.30;;;2.65;;
70071;SDS011;57434;42.794;23.302;2023-04-19T02:29:26;7.43;;;2.38;;
70071;SDS011;57434;42.794;23.302;2023-04-19T02:30:28;6.93;;;2.40;;
70071;SDS011;57434;42.794;23.302;2023-04-19T02:31:29;5.97;;;2.63;;
70071;SDS011;57434;42.794;23.302;2023-04-19T02:32:31;6.72;;;2.55;;
70071;SDS011;57434;42.794;23.302;2023-04-19T02:33:33;6.15;;;2.38;;
70071;SDS011;57434;42.794;23.302;2023-04-19T02:34:35;7.18;;;2.55;;
70071;SDS011;57434;42.794;23.302;2023-04-19T02:35:37;6.72;;;2.45;;
70071;SDS011;57434;42.794;23.302;2023-04-19T02:36:39;6.82;;;3.00;;
70071;SDS011;57434;42.794;23.302;2023-04-19T02:37:41;5.75;;;2.40;;
70071;SDS011;57434;42.794;23.302;2023-04-19T02:38:43;6.22;;;2.78;;
70071;SDS011;57434;42.794;23.302;2023-04-19T02:39:45;5.68;;;2.22;;
70071;SDS011;57434;42.794;23.302;2023-04-19T02:40:47;5.90;;;2.23;;
70071;SDS011;57434;42.794;23.302;2023-04-19T02:41:49;7.07;;;2.53;;
70071;SDS011;57434;42.794;23.302;2023-04-19T02:42:51;6.93;;;2.38;;
70071;SDS011;57434;42.794;23.302;2023-04-19T02:43:53;6.25;;;2.50;;
70071;SDS011;57434;42.794;23.302;2023-04-19T02:44:55;6.35;;;2.58;;
70071;SDS011;57434;42.794;23.302;2023-04-19T02:45:56;6.07;;;2.80;;
70071;SDS011;57434;42.794;23.302;2023-04-19T02:46:58;6.90;;;2.35;;
70071;SDS011;57434;42.794;23.302;2023-04-19T02:48:00;5.82;;;2.38;;
70071;SDS011;57434;42.794;23.302;2023-04-19T02:49:02;6.68;;;2.90;;
70071;SDS011;57434;42.794;23.302;2023-04-19T02:50:04;6.30;;;2.83;;
70071;SDS011;57434;42.794;23.302;2023-04-19T02:51:07;6.60;;;2.50;;
70071;SDS011;57434;42.794;23.302;2023-04-19T02:52:09;7.47;;;3.15;;
70071;SDS011;57434;42.794;23.302;2023-04-19T02:53:11;7.97;;;3.03;;
70071;SDS011;57434;42.794;23.302;2023-04-19T02:54:13;7.80;;;2.65;;
70071;SDS011;57434;42.794;23.302;2023-04-19T02:55:15;7.47;;;2.38;;
70071;SDS011;57434;42.794;23.302;2023-04-19T02:56:17;8.30;;;2.70;;
70071;SDS011;57434;42.794;23.302;2023-04-19T02:57:18;6.35;;;3.17;;
70071;SDS011;57434;42.794;23.302;2023-04-19T02:58:20;6.65;;;2.70;;
70071;SDS011;57434;42.794;23.302;2023-04-19T02:59:22;5.53;;;2.28;;
70071;SDS011;57434;42.794;23.302;2023-04-19T03:00:24;6.85;;;2.42;;
70071;SDS011;57434;42.794;23.302;2023-04-19T03:01:26;6.43;;;2.67;;
70071;SDS011;57434;42.794;23.302;2023-04-19T03:02:28;6.30;;;2.63;;
70071;SDS011;57434;42.794;23.302;2023-04-19T03:03:30;6.65;;;2.78;;
70071;SDS011;57434;42.794;23.302;2023-04-19T03:04:32;8.70;;;2.80;;
70071;SDS011;57434;42.794;23.302;2023-04-19T03:05:33;7.25;;;3.00;;
70071;SDS011;57434;42.794;23.302;2023-04-19T03:06:35;7.80;;;2.92;;
70071;SDS011;57434;42.794;23.302;2023-04-19T03:07:37;5.90;;;2.92;;
70071;SDS011;57434;42.794;23.302;2023-04-19T03:08:39;8.52;;;2.80;;
70071;SDS011;57434;42.794;23.302;2023-04-19T03:09:41;7.80;;;2.60;;
70071;SDS011;57434;42.794;23.302;2023-04-19T03:10:43;8.00;;;3.53;;
70071;SDS011;57434;42.794;23.302;2023-04-19T03:11:45;7.17;;;3.20;;
70071;SDS011;57434;42.794;23.302;2023-04-19T03:12:46;6.95;;;2.88;;
70071;SDS011;57434;42.794;23.302;2023-04-19T03:13:48;6.13;;;2.85;;
70071;SDS011;57434;42.794;23.302;2023-04-19T03:14:50;48.50;;;22.05;;
70071;SDS011;57434;42.794;23.302;2023-04-19T03:15:52;18.58;;;9.13;;
70071;SDS011;57434;42.794;23.302;2023-04-19T03:16:54;9.80;;;3.88;;
70071;SDS011;57434;42.794;23.302;2023-04-19T03:17:56;6.32;;;2.85;;
70071;SDS011;57434;42.794;23.302;2023-04-19T03:18:57;6.57;;;2.78;;
70071;SDS011;57434;42.794;23.302;2023-04-19T03:19:59;6.30;;;2.70;;
70071;SDS011;57434;42.794;23.302;2023-04-19T03:21:01;6.05;;;2.65;;
70071;SDS011;57434;42.794;23.302;2023-04-19T03:22:04;8.33;;;2.80;;
70071;SDS011;57434;42.794;23.302;2023-04-19T03:23:05;6.63;;;2.90;;
70071;SDS011;57434;42.794;23.302;2023-04-19T03:24:07;7.07;;;3.25;;
70071;SDS011;57434;42.794;23.302;2023-04-19T03:25:09;5.82;;;2.65;;
70071;SDS011;57434;42.794;23.302;2023-04-19T03:26:11;7.18;;;2.85;;
70071;SDS011;57434;42.794;23.302;2023-04-19T03:27:13;6.13;;;2.58;;
70071;SDS011;57434;42.794;23.302;2023-04-19T03:28:14;6.72;;;2.88;;
70071;SDS011;57434;42.794;23.302;2023-04-19T03:29:16;6.78;;;2.80;;
70071;SDS011;57434;42.794;23.302;2023-04-19T03:30:18;6.35;;;2.47;;
70071;SDS011;57434;42.794;23.302;2023-04-19T03:31:20;7.82;;;2.90;;
70071;SDS011;57434;42.794;23.302;2023-04-19T03:32:22;7.27;;;3.03;;
70071;SDS011;57434;42.794;23.302;2023-04-19T03:33:24;9.13;;;3.03;;
70071;SDS011;57434;42.794;23.302;2023-04-19T03:34:25;6.85;;;3.08;;
70071;SDS011;57434;42.794;23.302;2023-04-19T03:35:27;7.25;;;3.03;;
70071;SDS011;57434;42.794;23.302;2023-04-19T03:36:29;7.47;;;2.90;;
70071;SDS011;57434;42.794;23.302;2023-04-19T03:37:31;7.32;;;3.35;;
70071;SDS011;57434;42.794;23.302;2023-04-19T03:38:33;6.93;;;3.00;;
70071;SDS011;57434;42.794;23.302;2023-04-19T03:39:35;6.75;;;2.90;;
70071;SDS011;57434;42.794;23.302;2023-04-19T03:40:36;7.18;;;3.33;;
70071;SDS011;57434;42.794;23.302;2023-04-19T03:41:38;6.60;;;2.88;;
70071;SDS011;57434;42.794;23.302;2023-04-19T03:42:40;6.93;;;3.03;;
70071;SDS011;57434;42.794;23.302;2023-04-19T03:43:42;8.40;;;3.40;;
70071;SDS011;57434;42.794;23.302;2023-04-19T03:44:44;7.60;;;3.20;;
70071;SDS011;57434;42.794;23.302;2023-04-19T03:45:46;6.53;;;3.05;;
70071;SDS011;57434;42.794;23.302;2023-04-19T03:46:48;6.95;;;2.75;;
70071;SDS011;57434;42.794;23.302;2023-04-19T03:47:50;10.88;;;3.85;;
70071;SDS011;57434;42.794;23.302;2023-04-19T03:48:51;7.53;;;3.10;;
70071;SDS011;57434;42.794;23.302;2023-04-19T03:49:53;7.43;;;3.30;;
70071;SDS011;57434;42.794;23.302;2023-04-19T03:50:55;7.05;;;3.20;;
70071;SDS011;57434;42.794;23.302;2023-04-19T03:51:57;7.75;;;3.22;;
70071;SDS011;57434;42.794;23.302;2023-04-19T03:52:59;7.37;;;3.07;;
70071;SDS011;57434;42.794;23.302;2023-04-19T03:54:00;7.32;;;3.47;;
70071;SDS011;57434;42.794;23.302;2023-04-19T03:55:02;7.35;;;3.13;;
70071;SDS011;57434;42.794;23.302;2023-04-19T03:56:04;8.35;;;4.18;;
70071;SDS011;57434;42.794;23.302;2023-04-19T03:57:06;7.47;;;3.25;;
70071;SDS011;57434;42.794;23.302;2023-04-19T03:58:08;8.80;;;3.65;;
70071;SDS011;57434;42.794;23.302;2023-04-19T03:59:10;7.43;;;3.33;;
70071;SDS011;57434;42.794;23.302;2023-04-19T04:00:12;11.20;;;3.40;;
70071;SDS011;57434;42.794;23.302;2023-04-19T04:01:18;6.22;;;2.95;;
70071;SDS011;57434;42.794;23.302;2023-04-19T04:02:20;10.52;;;3.35;;
70071;SDS011;57434;42.794;23.302;2023-04-19T04:03:22;7.40;;;3.17;;
70071;SDS011;57434;42.794;23.302;2023-04-19T04:04:24;8.07;;;3.28;;
70071;SDS011;57434;42.794;23.302;2023-04-19T04:05:27;9.30;;;3.83;;
70071;SDS011;57434;42.794;23.302;2023-04-19T04:06:29;9.52;;;3.40;;
70071;SDS011;57434;42.794;23.302;2023-04-19T04:07:30;8.65;;;3.70;;
70071;SDS011;57434;42.794;23.302;2023-04-19T04:08:32;8.02;;;3.75;;
70071;SDS011;57434;42.794;23.302;2023-04-19T04:09:34;8.18;;;3.05;;
70071;SDS011;57434;42.794;23.302;2023-04-19T04:10:36;7.47;;;3.42;;
70071;SDS011;57434;42.794;23.302;2023-04-19T04:11:38;7.57;;;3.47;;
70071;SDS011;57434;42.794;23.302;2023-04-19T04:12:39;7.65;;;3.17;;
70071;SDS011;57434;42.794;23.302;2023-04-19T04:13:41;9.30;;;3.87;;
70071;SDS011;57434;42.794;23.302;2023-04-19T04:14:43;8.40;;;3.67;;
70071;SDS011;57434;42.794;23.302;2023-04-19T04:15:45;7.68;;;3.30;;
70071;SDS011;57434;42.794;23.302;2023-04-19T04:16:47;13.13;;;4.10;;
70071;SDS011;57434;42.794;23.302;2023-04-19T04:17:49;8.52;;;3.30;;
70071;SDS011;57434;42.794;23.302;2023-04-19T04:18:51;8.10;;;3.40;;
70071;SDS011;57434;42.794;23.302;2023-04-19T04:19:52;11.32;;;3.85;;
70071;SDS011;57434;42.794;23.302;2023-04-19T04:20:54;10.73;;;3.53;;
70071;SDS011;57434;42.794;23.302;2023-04-19T04:21:56;8.60;;;3.50;;
70071;SDS011;57434;42.794;23.302;2023-04-19T04:22:58;7.20;;;3.40;;
70071;SDS011;57434;42.794;23.302;2023-04-19T04:24:00;10.07;;;3.87;;
70071;SDS011;57434;42.794;23.302;2023-04-19T04:25:02;8.40;;;3.70;;
70071;SDS011;57434;42.794;23.302;2023-04-19T04:26:04;9.20;;;3.65;;
70071;SDS011;57434;42.794;23.302;2023-04-19T04:27:08;9.70;;;3.53;;
70071;SDS011;57434;42.794;23.302;2023-04-19T04:28:10;8.65;;;3.42;;
70071;SDS011;57434;42.794;23.302;2023-04-19T04:29:12;9.75;;;4.13;;
70071;SDS011;57434;42.794;23.302;2023-04-19T04:30:14;12.55;;;3.97;;
70071;SDS011;57434;42.794;23.302;2023-04-19T04:31:16;8.32;;;3.33;;
70071;SDS011;57434;42.794;23.302;2023-04-19T04:32:17;8.05;;;3.80;;
70071;SDS011;57434;42.794;23.302;2023-04-19T04:33:19;8.00;;;3.78;;
70071;SDS011;57434;42.794;23.302;2023-04-19T04:34:21;7.83;;;3.80;;
70071;SDS011;57434;42.794;23.302;2023-04-19T04:35:23;8.70;;;3.53;;
70071;SDS011;57434;42.794;23.302;2023-04-19T04:36:25;7.68;;;3.47;;
70071;SDS011;57434;42.794;23.302;2023-04-19T04:37:27;7.22;;;3.15;;
70071;SDS011;57434;42.794;23.302;2023-04-19T04:38:29;8.00;;;3.42;;
70071;SDS011;57434;42.794;23.302;2023-04-19T04:39:31;9.15;;;3.78;;
70071;SDS011;57434;42.794;23.302;2023-04-19T04:40:32;8.93;;;4.10;;
70071;SDS011;57434;42.794;23.302;2023-04-19T04:41:34;7.93;;;3.55;;
70071;SDS011;57434;42.794;23.302;2023-04-19T04:42:36;9.30;;;4.22;;
70071;SDS011;57434;42.794;23.302;2023-04-19T04:43:38;10.48;;;4.20;;
70071;SDS011;57434;42.794;23.302;2023-04-19T04:44:40;7.90;;;3.80;;
70071;SDS011;57434;42.794;23.302;2023-04-19T04:45:42;10.05;;;4.22;;
70071;SDS011;57434;42.794;23.302;2023-04-19T04:46:43;9.45;;;3.80;;
70071;SDS011;57434;42.794;23.302;2023-04-19T04:47:45;9.23;;;3.60;;
70071;SDS011;57434;42.794;23.302;2023-04-19T04:48:47;10.82;;;5.10;;
70071;SDS011;57434;42.794;23.302;2023-04-19T04:49:49;10.68;;;4.85;;
70071;SDS011;57434;42.794;23.302;2023-04-19T04:50:51;9.63;;;4.30;;
70071;SDS011;57434;42.794;23.302;2023-04-19T04:51:53;7.75;;;3.38;;
70071;SDS011;57434;42.794;23.302;2023-04-19T04:52:55;7.60;;;3.35;;
70071;SDS011;57434;42.794;23.302;2023-04-19T04:53:56;9.93;;;4.18;;
70071;SDS011;57434;42.794;23.302;2023-04-19T04:54:58;9.90;;;4.37;;
70071;SDS011;57434;42.794;23.302;2023-04-19T04:56:00;9.23;;;4.00;;
70071;SDS011;57434;42.794;23.302;2023-04-19T04:57:02;8.10;;;3.55;;
70071;SDS011;57434;42.794;23.302;2023-04-19T04:58:04;11.25;;;4.15;;
70071;SDS011;57434;42.794;23.302;2023-04-19T04:59:06;9.25;;;4.40;;
70071;SDS011;57434;42.794;23.302;2023-04-19T05:00:08;9.88;;;3.70;;
70071;SDS011;57434;42.794;23.302;2023-04-19T05:01:10;9.32;;;3.92;;
70071;SDS011;57434;42.794;23.302;2023-04-19T05:02:14;10.73;;;3.95;;
70071;SDS011;57434;42.794;23.302;2023-04-19T05:03:16;9.07;;;4.32;;
70071;SDS011;57434;42.794;23.302;2023-04-19T05:04:18;10.88;;;4.50;;
70071;SDS011;57434;42.794;23.302;2023-04-19T05:05:20;9.43;;;3.90;;
70071;SDS011;57434;42.794;23.302;2023-04-19T05:06:22;11.57;;;4.32;;
70071;SDS011;57434;42.794;23.302;2023-04-19T05:07:24;9.57;;;3.92;;
70071;SDS011;57434;42.794;23.302;2023-04-19T05:08:26;10.40;;;4.45;;
70071;SDS011;57434;42.794;23.302;2023-04-19T05:09:28;9.55;;;4.35;;
70071;SDS011;57434;42.794;23.302;2023-04-19T05:10:30;8.77;;;4.07;;
70071;SDS011;57434;42.794;23.302;2023-04-19T05:11:32;10.73;;;4.72;;
70071;SDS011;57434;42.794;23.302;2023-04-19T05:12:36;9.18;;;3.95;;
70071;SDS011;57434;42.794;23.302;2023-04-19T05:13:38;12.13;;;4.18;;
70071;SDS011;57434;42.794;23.302;2023-04-19T05:14:40;10.23;;;3.95;;
70071;SDS011;57434;42.794;23.302;2023-04-19T05:15:42;12.50;;;3.90;;
70071;SDS011;57434;42.794;23.302;2023-04-19T05:16:44;10.55;;;3.67;;
70071;SDS011;57434;42.794;23.302;2023-04-19T05:17:45;9.00;;;4.20;;
70071;SDS011;57434;42.794;23.302;2023-04-19T05:18:47;9.07;;;3.95;;
70071;SDS011;57434;42.794;23.302;2023-04-19T05:19:49;8.02;;;3.90;;
70071;SDS011;57434;42.794;23.302;2023-04-19T05:20:51;8.25;;;3.38;;
70071;SDS011;57434;42.794;23.302;2023-04-19T05:21:53;8.90;;;4.07;;
70071;SDS011;57434;42.794;23.302;2023-04-19T05:22:55;9.57;;;4.40;;
70071;SDS011;57434;42.794;23.302;2023-04-19T05:23:58;9.30;;;4.22;;
70071;SDS011;57434;42.794;23.302;2023-04-19T05:25:00;9.10;;;4.32;;
70071;SDS011;57434;42.794;23.302;2023-04-19T05:26:02;8.93;;;3.80;;
70071;SDS011;57434;42.794;23.302;2023-04-19T05:27:04;11.70;;;3.47;;
70071;SDS011;57434;42.794;23.302;2023-04-19T05:28:06;12.27;;;5.82;;
70071;SDS011;57434;42.794;23.302;2023-04-19T05:29:08;23.05;;;9.77;;
70071;SDS011;57434;42.794;23.302;2023-04-19T05:30:09;20.85;;;8.23;;
70071;SDS011;57434;42.794;23.302;2023-04-19T05:31:11;9.90;;;4.15;;
70071;SDS011;57434;42.794;23.302;2023-04-19T05:32:13;9.70;;;4.03;;
70071;SDS011;57434;42.794;23.302;2023-04-19T05:33:15;9.63;;;3.75;;
70071;SDS011;57434;42.794;23.302;2023-04-19T05:34:17;9.35;;;4.22;;
70071;SDS011;57434;42.794;23.302;2023-04-19T05:35:22;9.30;;;3.83;;
70071;SDS011;57434;42.794;23.302;2023-04-19T05:36:24;8.53;;;3.83;;
70071;SDS011;57434;42.794;23.302;2023-04-19T05:37:25;13.63;;;5.80;;
70071;SDS011;57434;42.794;23.302;2023-04-19T05:38:27;11.00;;;4.50;;
70071;SDS011;57434;42.794;23.302;2023-04-19T05:39:29;12.32;;;5.00;;
70071;SDS011;57434;42.794;23.302;2023-04-19T05:40:31;11.70;;;5.25;;
70071;SDS011;57434;42.794;23.302;2023-04-19T05:41:33;10.57;;;3.92;;
70071;SDS011;57434;42.794;23.302;2023-04-19T05:42:34;7.53;;;3.58;;
70071;SDS011;57434;42.794;23.302;2023-04-19T05:43:36;8.35;;;3.10;;
70071;SDS011;57434;42.794;23.302;2023-04-19T05:44:38;8.52;;;3.83;;
70071;SDS011;57434;42.794;23.302;2023-04-19T05:45:40;9.50;;;4.32;;
70071;SDS011;57434;42.794;23.302;2023-04-19T05:46:42;9.43;;;4.00;;
70071;SDS011;57434;42.794;23.302;2023-04-19T05:47:44;7.75;;;3.53;;
70071;SDS011;57434;42.794;23.302;2023-04-19T05:48:45;8.30;;;3.40;;
70071;SDS011;57434;42.794;23.302;2023-04-19T05:49:47;7.85;;;3.03;;
70071;SDS011;57434;42.794;23.302;2023-04-19T05:50:49;8.40;;;3.30;;
70071;SDS011;57434;42.794;23.302;2023-04-19T05:51:51;6.55;;;3.10;;
70071;SDS011;57434;42.794;23.302;2023-04-19T05:52:53;8.00;;;2.97;;
70071;SDS011;57434;42.794;23.302;2023-04-19T05:53:55;5.85;;;2.60;;
70071;SDS011;57434;42.794;23.302;2023-04-19T05:54:57;5.68;;;1.85;;
70071;SDS011;57434;42.794;23.302;2023-04-19T05:55:59;4.63;;;1.60;;
70071;SDS011;57434;42.794;23.302;2023-04-19T05:57:01;5.43;;;1.87;;
70071;SDS011;57434;42.794;23.302;2023-04-19T05:58:03;5.18;;;1.80;;
70071;SDS011;57434;42.794;23.302;2023-04-19T05:59:05;5.60;;;2.08;;
70071;SDS011;57434;42.794;23.302;2023-04-19T06:00:07;4.40;;;1.52;;
70071;SDS011;57434;42.794;23.302;2023-04-19T06:01:10;5.15;;;1.70;;
70071;SDS011;57434;42.794;23.302;2023-04-19T06:02:12;5.15;;;1.73;;
70071;SDS011;57434;42.794;23.302;2023-04-19T06:03:14;5.85;;;1.63;;
70071;SDS011;57434;42.794;23.302;2023-04-19T06:04:16;6.85;;;2.70;;
70071;SDS011;57434;42.794;23.302;2023-04-19T06:05:18;6.93;;;2.08;;
70071;SDS011;57434;42.794;23.302;2023-04-19T06:06:21;5.07;;;1.80;;
70071;SDS011;57434;42.794;23.302;2023-04-19T06:07:23;4.37;;;1.43;;